Terminal Aerodrome Forecast
Issued by NWS Corpus Christi, TX

Home | Current Version | Previous Version | Text Only | Print | Product List | Glossary On
Versions: 1 2 3 4 5 6 7 8 9 10 11 12 13 14 15 16 17 18 19 20
000
FTUS44 KCRP 311500 AAA
TAFVCT
TAF AMD
KVCT 311501Z 3115/0112 13014G23KT P6SM SCT015 OVC120
      TEMPO 3115/3119 5SM BR BKN015
     FM312000 14014G23KT P6SM BKN025 OVC120
     FM010100 14012KT P6SM BKN012 OVC100
      TEMPO 0101/0105 5SM -SHRA OVC009
     FM010600 13008KT 4SM BR OVC006=

USA.gov is the U.S. government's official web portal to all federal, state and local government web resources and services.